createdAt,value
2022-12-26T00:00:12.566Z,50.54
2022-12-26T00:02:39.928Z,50.70
2022-12-26T00:05:08.223Z,50.60
2022-12-26T00:07:35.405Z,50.65
2022-12-26T00:10:02.600Z,50.65
2022-12-26T00:12:30.377Z,50.59
2022-12-26T00:14:57.858Z,50.43
2022-12-26T00:17:26.697Z,50.42
2022-12-26T00:19:53.960Z,50.70
2022-12-26T00:22:21.201Z,50.75
2022-12-26T00:24:48.516Z,50.72
2022-12-26T00:27:15.719Z,50.63
2022-12-26T00:29:42.838Z,50.27
2022-12-26T00:32:10.028Z,49.97
2022-12-26T00:34:38.555Z,50.37
2022-12-26T00:37:05.740Z,50.18
2022-12-26T00:39:32.944Z,50.53
2022-12-26T00:42:00.033Z,50.14
2022-12-26T00:44:27.161Z,50.02
2022-12-26T00:46:54.629Z,49.70
2022-12-26T00:49:21.939Z,49.81
2022-12-26T00:51:50.617Z,49.59
2022-12-26T00:54:17.857Z,49.64
2022-12-26T00:56:45.058Z,49.68
2022-12-26T00:59:12.315Z,49.56
2022-12-26T01:01:39.880Z,50.02
2022-12-26T01:04:07.137Z,50.32
2022-12-26T01:06:34.585Z,50.01
2022-12-26T01:09:03.192Z,49.77
2022-12-26T01:11:30.401Z,49.88
2022-12-26T01:13:57.579Z,50.21
2022-12-26T01:16:24.762Z,51.27
2022-12-26T01:18:51.921Z,50.73
2022-12-26T01:21:19.066Z,50.43
2022-12-26T01:23:46.240Z,50.08
2022-12-26T01:26:19.928Z,50.13
2022-12-26T01:28:48.322Z,50.08
2022-12-26T01:31:16.435Z,49.83
2022-12-26T01:33:43.578Z,49.79
2022-12-26T01:36:10.997Z,49.51
2022-12-26T01:38:38.260Z,49.57
2022-12-26T01:41:05.759Z,49.64
2022-12-26T01:43:51.768Z,49.67
2022-12-26T01:46:24.238Z,49.22
2022-12-26T01:48:52.268Z,49.51
2022-12-26T01:51:24.263Z,49.79
2022-12-26T01:54:37.438Z,49.53
2022-12-26T01:56:47.143Z,49.71
2022-12-26T01:59:22.337Z,49.54
2022-12-26T02:01:53.918Z,49.39
2022-12-26T02:04:26.459Z,49.42
2022-12-26T02:06:53.921Z,49.44
2022-12-26T02:09:22.159Z,49.19
2022-12-26T02:12:37.453Z,49.35
2022-12-26T02:14:47.720Z,48.94
2022-12-26T02:17:14.997Z,49.12
2022-12-26T02:19:56.415Z,49.13
2022-12-26T02:23:18.439Z,49.37
2022-12-26T02:26:24.229Z,49.28
2022-12-26T02:29:21.859Z,49.23
2022-12-26T02:32:07.291Z,49.49
2022-12-26T02:34:48.980Z,49.33
2022-12-26T02:37:34.519Z,49.44
2022-12-26T02:40:23.929Z,49.76
2022-12-26T02:42:59.084Z,50.08
2022-12-26T02:45:34.770Z,49.91
2022-12-26T02:48:12.686Z,49.83
2022-12-26T02:50:53.982Z,49.88
2022-12-26T02:53:34.098Z,50.25
2022-12-26T02:56:13.909Z,50.16
2022-12-26T02:58:54.638Z,50.00
2022-12-26T03:01:28.707Z,50.11
2022-12-26T03:04:04.938Z,50.52
2022-12-26T03:06:36.362Z,62.16
2022-12-26T03:09:08.343Z,59.88
2022-12-26T03:11:40.541Z,55.86
2022-12-26T03:14:17.259Z,57.40
2022-12-26T03:16:50.343Z,54.35
2022-12-26T03:19:23.778Z,55.08
2022-12-26T03:21:52.950Z,52.87
2022-12-26T03:24:23.530Z,54.46
2022-12-26T03:26:54.413Z,53.16
2022-12-26T03:29:24.586Z,53.00
2022-12-26T03:31:52.015Z,51.94
2022-12-26T03:34:20.742Z,51.32
2022-12-26T03:37:14.872Z,49.02
2022-12-26T03:39:53.625Z,51.27
2022-12-26T03:42:34.673Z,50.74
2022-12-26T03:45:19.792Z,51.08
2022-12-26T03:47:56.093Z,49.43
2022-12-26T03:50:35.892Z,50.00
2022-12-26T03:53:12.804Z,49.49
2022-12-26T03:55:49.004Z,49.47
2022-12-26T03:58:23.825Z,48.71
2022-12-26T04:00:54.341Z,49.13
2022-12-26T04:03:25.941Z,49.49
2022-12-26T04:06:00.405Z,48.92
2022-12-26T04:08:35.902Z,48.26
2022-12-26T04:11:05.371Z,49.19
2022-12-26T04:13:45.084Z,48.62
2022-12-26T04:16:19.422Z,48.76
2022-12-26T04:18:56.584Z,48.51
2022-12-26T04:21:35.706Z,48.44
2022-12-26T04:24:12.407Z,47.80
2022-12-26T04:26:46.250Z,47.99
2022-12-26T04:29:13.605Z,47.93
2022-12-26T04:31:52.552Z,47.06
2022-12-26T04:34:27.091Z,47.23
2022-12-26T04:37:02.445Z,47.45
2022-12-26T04:39:34.445Z,46.85
2022-12-26T04:42:04.168Z,46.96
2022-12-26T04:44:34.691Z,47.58
2022-12-26T04:47:01.978Z,46.96
2022-12-26T04:49:29.147Z,47.63
2022-12-26T04:52:00.245Z,46.96
2022-12-26T04:54:27.926Z,47.55
2022-12-26T04:56:55.705Z,47.36
2022-12-26T04:59:23.526Z,47.41
2022-12-26T05:01:51.371Z,46.56
2022-12-26T05:04:19.265Z,47.19
2022-12-26T05:06:46.563Z,46.30
2022-12-26T05:09:20.044Z,46.22
2022-12-26T05:11:47.179Z,47.01
2022-12-26T05:14:14.260Z,46.89
2022-12-26T05:16:41.530Z,47.16
2022-12-26T05:19:11.741Z,46.38
2022-12-26T05:21:39.378Z,46.93
2022-12-26T05:24:10.665Z,47.09
2022-12-26T05:26:39.676Z,46.88
2022-12-26T05:29:07.041Z,47.36
2022-12-26T05:31:36.356Z,46.83
2022-12-26T05:34:04.057Z,46.74
2022-12-26T05:36:36.184Z,46.71
2022-12-26T05:39:03.763Z,47.34
2022-12-26T05:41:30.881Z,47.24
2022-12-26T05:43:59.539Z,46.79
2022-12-26T05:46:26.834Z,46.70
2022-12-26T05:48:54.083Z,46.44
2022-12-26T05:51:21.345Z,46.33
2022-12-26T05:53:48.570Z,47.14
2022-12-26T05:56:17.342Z,46.60
2022-12-26T05:58:45.253Z,46.38
2022-12-26T06:01:17.490Z,46.65
2022-12-26T06:03:48.910Z,46.69
2022-12-26T06:06:17.844Z,46.60
2022-12-26T06:08:48.379Z,46.70
2022-12-26T06:11:17.203Z,46.77
2022-12-26T06:13:44.393Z,46.70
2022-12-26T06:16:15.247Z,46.28
2022-12-26T06:18:42.927Z,46.27
2022-12-26T06:21:15.025Z,46.42
2022-12-26T06:23:42.686Z,46.39
2022-12-26T06:26:10.579Z,46.48
2022-12-26T06:28:38.083Z,46.18
2022-12-26T06:31:07.672Z,46.72
2022-12-26T06:33:36.327Z,45.93
2022-12-26T06:36:09.968Z,46.05
2022-12-26T06:38:37.907Z,45.70
2022-12-26T06:41:06.750Z,46.34
2022-12-26T06:43:34.312Z,46.34
2022-12-26T06:46:04.207Z,46.95
2022-12-26T06:48:31.782Z,46.34
2022-12-26T06:51:04.112Z,46.10
2022-12-26T06:53:31.256Z,46.00
2022-12-26T06:56:07.169Z,45.68
2022-12-26T06:58:34.704Z,45.74
2022-12-26T07:01:05.068Z,46.15
2022-12-26T07:03:32.546Z,45.26
2022-12-26T07:06:05.332Z,44.96
2022-12-26T07:08:33.047Z,46.54
2022-12-26T07:11:00.322Z,45.73
2022-12-26T07:13:27.547Z,45.40
2022-12-26T07:15:54.805Z,45.36
2022-12-26T07:18:21.967Z,45.96
2022-12-26T07:20:49.147Z,45.79
2022-12-26T07:23:17.673Z,45.82
2022-12-26T07:25:47.748Z,45.71
2022-12-26T07:28:15.287Z,45.28
2022-12-26T07:30:47.433Z,44.92
2022-12-26T07:33:14.789Z,45.36
2022-12-26T07:35:41.994Z,45.05
2022-12-26T07:38:09.825Z,45.12
2022-12-26T07:40:38.708Z,43.07
2022-12-26T07:43:05.814Z,45.82
2022-12-26T07:45:33.240Z,44.96
2022-12-26T07:48:00.572Z,43.33
2022-12-26T07:50:28.498Z,42.44
2022-12-26T07:52:55.928Z,43.17
2022-12-26T07:55:23.086Z,42.83
2022-12-26T07:57:52.820Z,43.71
2022-12-26T08:00:20.534Z,42.95
2022-12-26T08:02:48.628Z,43.71
2022-12-26T08:05:16.609Z,43.28
2022-12-26T08:07:43.752Z,43.19
2022-12-26T08:10:10.846Z,43.32
2022-12-26T08:12:38.571Z,43.53
2022-12-26T08:15:09.348Z,43.32
2022-12-26T08:17:36.515Z,43.29
2022-12-26T08:20:04.175Z,44.00
2022-12-26T08:22:31.290Z,43.60
2022-12-26T08:24:58.433Z,43.57
2022-12-26T08:27:25.565Z,43.09
2022-12-26T08:29:52.707Z,43.80
2022-12-26T08:32:21.289Z,43.70
2022-12-26T08:34:48.503Z,44.21
2022-12-26T08:37:15.671Z,47.81
2022-12-26T08:39:42.770Z,43.96
2022-12-26T08:42:09.908Z,44.98
2022-12-26T08:44:37.114Z,43.54
2022-12-26T08:47:04.467Z,43.63
2022-12-26T08:49:33.105Z,42.59
2022-12-26T08:52:00.166Z,43.28
2022-12-26T08:54:28.267Z,42.73
2022-12-26T08:56:55.432Z,41.52
2022-12-26T08:59:23.746Z,41.10
2022-12-26T09:01:51.065Z,41.62
2022-12-26T09:04:18.467Z,41.05
2022-12-26T09:06:47.092Z,42.55
2022-12-26T09:09:14.285Z,42.98
2022-12-26T09:11:42.305Z,42.60
2022-12-26T09:14:10.585Z,42.67
2022-12-26T09:16:49.145Z,42.62
2022-12-26T09:19:18.543Z,42.99
2022-12-26T09:21:48.868Z,43.57
2022-12-26T09:24:18.241Z,43.17
2022-12-26T09:26:45.533Z,43.82
2022-12-26T09:29:14.614Z,43.20
2022-12-26T09:31:41.741Z,43.68
2022-12-26T09:34:08.882Z,43.94
2022-12-26T09:36:38.666Z,43.76
2022-12-26T09:39:08.375Z,43.97
2022-12-26T09:42:00.093Z,44.94
2022-12-26T09:44:40.904Z,43.69
2022-12-26T09:47:30.252Z,43.98
2022-12-26T09:50:03.339Z,43.28
2022-12-26T09:52:41.280Z,43.21
2022-12-26T09:55:27.598Z,44.35
2022-12-26T09:57:59.920Z,43.92
2022-12-26T10:00:33.999Z,44.49
2022-12-26T10:03:02.289Z,44.02
2022-12-26T10:05:38.320Z,43.60
2022-12-26T10:08:22.390Z,44.47
2022-12-26T10:11:01.026Z,44.74
2022-12-26T10:13:37.317Z,44.00
2022-12-26T10:16:11.603Z,44.66
2022-12-26T10:18:56.728Z,43.73
2022-12-26T10:21:41.120Z,44.82
2022-12-26T10:24:15.622Z,44.30
2022-12-26T10:26:48.539Z,44.70
2022-12-26T10:29:24.695Z,44.28
2022-12-26T10:31:57.178Z,44.64
2022-12-26T10:34:29.278Z,44.60
2022-12-26T10:37:01.380Z,43.58
2022-12-26T10:39:35.281Z,43.54
2022-12-26T10:42:14.859Z,44.35
2022-12-26T10:44:42.238Z,44.43
2022-12-26T10:47:28.326Z,44.29
2022-12-26T10:49:55.580Z,43.76
2022-12-26T10:52:30.677Z,43.99
2022-12-26T10:55:28.294Z,44.39
2022-12-26T10:57:52.219Z,44.28
2022-12-26T11:00:22.939Z,43.85
2022-12-26T11:03:04.023Z,44.00
2022-12-26T11:08:27.128Z,44.21
2022-12-26T11:11:05.080Z,44.25
2022-12-26T11:13:40.683Z,44.38
2022-12-26T11:16:10.295Z,44.93
2022-12-26T11:18:46.916Z,45.16
2022-12-26T11:21:21.872Z,44.74
2022-12-26T11:23:50.616Z,44.52
2022-12-26T11:26:24.135Z,44.35
2022-12-26T11:29:11.231Z,44.45
2022-12-26T11:31:42.962Z,44.86
2022-12-26T11:34:17.097Z,44.40
2022-12-26T11:36:48.747Z,43.83
2022-12-26T11:39:24.720Z,44.48
2022-12-26T11:41:53.242Z,44.51
2022-12-26T11:44:29.555Z,44.06
2022-12-26T11:47:01.335Z,44.71
2022-12-26T11:49:34.325Z,45.60
2022-12-26T11:52:22.716Z,43.07
2022-12-26T11:54:51.686Z,43.62
2022-12-26T11:57:21.895Z,43.87
2022-12-26T11:59:55.452Z,44.35
2022-12-26T12:02:27.951Z,44.29
2022-12-26T12:05:00.176Z,45.40
2022-12-26T12:07:53.999Z,45.40
2022-12-26T12:10:46.796Z,45.12
2022-12-26T12:13:27.661Z,45.51
2022-12-26T12:16:07.933Z,45.71
2022-12-26T12:18:51.137Z,45.19
2022-12-26T12:21:33.016Z,45.33
2022-12-26T12:24:26.219Z,46.36
2022-12-26T12:27:06.784Z,45.30
2022-12-26T12:29:49.668Z,46.13
2022-12-26T12:32:29.078Z,46.09
2022-12-26T12:35:23.378Z,46.15
2022-12-26T12:38:07.679Z,46.34
2022-12-26T12:40:49.859Z,46.12
2022-12-26T12:43:27.497Z,45.80
2022-12-26T12:46:09.489Z,46.42
2022-12-26T12:49:20.308Z,45.96
2022-12-26T12:51:58.679Z,46.70
2022-12-26T12:54:57.463Z,47.56
2022-12-26T12:57:36.938Z,45.97
2022-12-26T13:00:15.761Z,47.17
2022-12-26T13:02:51.668Z,47.24
2022-12-26T13:05:32.814Z,47.14
2022-12-26T13:08:06.327Z,48.17
2022-12-26T13:10:38.060Z,47.93
2022-12-26T13:13:17.698Z,47.96
2022-12-26T13:15:49.818Z,48.12
2022-12-26T13:18:21.367Z,47.97
2022-12-26T13:21:01.379Z,48.29
2022-12-26T13:23:33.797Z,47.84
2022-12-26T13:26:11.297Z,48.24
2022-12-26T13:29:01.005Z,48.96
2022-12-26T13:31:33.380Z,48.61
2022-12-26T13:34:01.925Z,48.78
2022-12-26T13:36:52.371Z,47.43
2022-12-26T13:39:41.182Z,48.50
2022-12-26T13:42:33.767Z,48.58
2022-12-26T13:45:35.314Z,47.82
2022-12-26T13:48:03.351Z,48.21
2022-12-26T13:50:54.935Z,48.38
2022-12-26T13:53:32.681Z,48.41
2022-12-26T13:56:02.190Z,48.82
2022-12-26T13:58:53.556Z,49.30
2022-12-26T14:01:39.124Z,48.73
2022-12-26T14:04:35.282Z,48.81
2022-12-26T14:07:21.998Z,49.15
2022-12-26T14:10:03.461Z,49.60
2022-12-26T14:12:50.641Z,50.05
2022-12-26T14:15:29.379Z,50.11
2022-12-26T14:18:12.418Z,48.50
2022-12-26T14:20:48.040Z,49.28
2022-12-26T14:23:40.297Z,48.94
2022-12-26T14:26:29.296Z,49.26
2022-12-26T14:29:07.035Z,49.82
2022-12-26T14:31:44.776Z,49.41
2022-12-26T14:34:28.688Z,49.29
2022-12-26T14:37:10.997Z,49.42
2022-12-26T14:39:53.000Z,50.16
2022-12-26T14:42:25.193Z,50.10
2022-12-26T14:44:53.787Z,50.17
2022-12-26T14:47:37.220Z,50.34
2022-12-26T14:50:39.960Z,50.80
2022-12-26T14:53:38.506Z,51.00
2022-12-26T14:56:34.222Z,50.97
2022-12-26T14:59:33.756Z,50.62
2022-12-26T15:02:28.663Z,51.08
2022-12-26T15:05:07.058Z,50.90
2022-12-26T15:08:08.818Z,51.63
2022-12-26T15:11:10.680Z,52.06
2022-12-26T15:14:10.637Z,52.04
2022-12-26T15:17:03.838Z,52.19
2022-12-26T15:20:04.937Z,52.13
2022-12-26T15:23:13.737Z,52.36
2022-12-26T15:26:19.914Z,52.45
2022-12-26T15:29:21.787Z,52.09
2022-12-26T15:32:02.477Z,52.24
2022-12-26T15:34:47.659Z,52.54
2022-12-26T15:37:31.017Z,52.65
2022-12-26T15:40:12.520Z,52.65
2022-12-26T15:42:57.617Z,52.68
2022-12-26T15:45:40.159Z,52.82
2022-12-26T15:48:27.586Z,53.15
2022-12-26T15:51:02.425Z,53.33
2022-12-26T15:53:47.463Z,53.00
2022-12-26T15:56:50.021Z,53.37
2022-12-26T15:59:49.843Z,53.00
2022-12-26T16:02:37.259Z,53.26
2022-12-26T16:05:54.876Z,53.20
2022-12-26T16:08:54.482Z,52.95
2022-12-26T16:11:25.183Z,53.19
2022-12-26T16:13:56.847Z,53.97
2022-12-26T16:16:28.075Z,53.79
2022-12-26T16:18:57.939Z,53.51
2022-12-26T16:21:28.936Z,53.71
2022-12-26T16:23:56.039Z,53.53
2022-12-26T16:26:28.005Z,53.48
2022-12-26T16:28:59.098Z,53.39
2022-12-26T16:31:30.168Z,53.42
2022-12-26T16:34:00.378Z,53.27
2022-12-26T16:36:30.036Z,53.88
2022-12-26T16:38:57.337Z,53.71
2022-12-26T16:41:26.913Z,53.55
2022-12-26T16:43:56.920Z,53.41
2022-12-26T16:46:29.509Z,53.57
2022-12-26T16:49:01.359Z,53.43
2022-12-26T16:51:40.062Z,53.76
2022-12-26T16:54:27.339Z,54.32
2022-12-26T16:57:03.457Z,54.06
2022-12-26T16:59:44.959Z,53.79
2022-12-26T17:02:24.529Z,53.78
2022-12-26T17:04:59.657Z,54.01
2022-12-26T17:07:29.097Z,53.95
2022-12-26T17:09:59.480Z,54.02
2022-12-26T17:12:34.137Z,53.86
2022-12-26T17:15:03.705Z,53.51
2022-12-26T17:17:35.369Z,53.63
2022-12-26T17:20:32.965Z,53.71
2022-12-26T17:23:00.958Z,53.49
2022-12-26T17:25:30.942Z,53.57
2022-12-26T17:28:23.956Z,53.36
2022-12-26T17:30:53.374Z,53.39
2022-12-26T17:33:25.112Z,53.16
2022-12-26T17:38:46.744Z,53.51
2022-12-26T17:41:16.916Z,53.83
2022-12-26T17:43:46.782Z,53.24
2022-12-26T17:46:16.515Z,54.38
2022-12-26T17:48:44.690Z,55.51
2022-12-26T17:51:17.594Z,54.11
2022-12-26T17:53:49.359Z,54.43
2022-12-26T17:56:19.718Z,54.31
2022-12-26T17:58:48.459Z,53.61
2022-12-26T18:01:20.752Z,52.60
2022-12-26T18:03:48.663Z,52.45
2022-12-26T18:06:17.801Z,52.04
2022-12-26T18:08:45.491Z,51.53
2022-12-26T18:11:14.505Z,51.38
2022-12-26T18:13:42.473Z,50.98
2022-12-26T18:16:16.784Z,50.88
2022-12-26T18:18:46.564Z,49.78
2022-12-26T18:21:16.749Z,50.14
2022-12-26T18:23:44.390Z,50.53
2022-12-26T18:26:21.142Z,50.27
2022-12-26T18:28:50.474Z,48.90
2022-12-26T18:31:18.121Z,49.69
2022-12-26T18:33:45.658Z,49.88
2022-12-26T18:36:14.696Z,49.20
2022-12-26T18:38:44.301Z,49.50
2022-12-26T18:41:15.140Z,49.88
2022-12-26T18:43:42.305Z,49.80
2022-12-26T18:46:17.209Z,49.29
2022-12-26T18:48:44.958Z,49.21
2022-12-26T18:51:12.390Z,48.28
2022-12-26T18:53:39.493Z,47.50
2022-12-26T18:56:15.776Z,48.75
2022-12-26T18:58:42.999Z,48.34
2022-12-26T19:01:14.703Z,48.29
2022-12-26T19:03:43.698Z,49.20
2022-12-26T19:06:23.536Z,49.42
2022-12-26T19:08:50.929Z,49.80
2022-12-26T19:11:20.568Z,48.92
2022-12-26T19:13:48.807Z,48.73
2022-12-26T19:16:16.573Z,49.18
2022-12-26T19:18:45.870Z,49.13
2022-12-26T19:21:14.761Z,61.74
2022-12-26T19:23:42.635Z,50.73
2022-12-26T19:26:10.786Z,46.12
2022-12-26T19:28:41.103Z,42.64
2022-12-26T19:31:10.241Z,41.43
2022-12-26T19:33:37.959Z,41.83
2022-12-26T19:36:06.841Z,40.52
2022-12-26T19:38:35.114Z,42.42
2022-12-26T19:41:03.588Z,42.76
2022-12-26T19:43:32.113Z,43.90
2022-12-26T19:46:02.761Z,45.07
2022-12-26T19:48:31.418Z,44.97
2022-12-26T19:51:00.763Z,44.89
2022-12-26T19:53:27.956Z,46.25
2022-12-26T19:55:55.577Z,45.18
2022-12-26T19:58:23.103Z,45.14
2022-12-26T20:00:50.200Z,46.63
2022-12-26T20:03:19.007Z,46.74
2022-12-26T20:05:56.357Z,47.59
2022-12-26T20:08:23.579Z,48.41
2022-12-26T20:10:53.572Z,48.41
2022-12-26T20:13:22.978Z,48.41
2022-12-26T20:15:50.139Z,48.63
2022-12-26T20:18:18.719Z,49.14
2022-12-26T20:20:53.318Z,48.89
2022-12-26T20:23:20.457Z,48.24
2022-12-26T20:25:47.603Z,48.16
2022-12-26T20:28:15.026Z,48.05
2022-12-26T20:30:42.401Z,47.56
2022-12-26T20:33:09.754Z,48.03
2022-12-26T20:35:38.361Z,46.85
2022-12-26T20:38:05.872Z,46.87
2022-12-26T20:40:33.130Z,47.02
2022-12-26T20:43:00.303Z,47.32
2022-12-26T20:45:27.552Z,46.75
2022-12-26T20:47:54.783Z,47.27
2022-12-26T20:50:22.010Z,47.18
2022-12-26T20:52:50.630Z,47.71
2022-12-26T20:55:17.740Z,47.69
2022-12-26T20:57:45.041Z,47.26
2022-12-26T21:00:13.906Z,46.98
2022-12-26T21:02:41.216Z,47.07
2022-12-26T21:05:09.366Z,47.40
2022-12-26T21:07:36.579Z,46.48
2022-12-26T21:10:06.489Z,47.24
2022-12-26T21:12:33.753Z,46.44
2022-12-26T21:15:00.936Z,46.96
2022-12-26T21:17:28.054Z,47.07
2022-12-26T21:19:55.288Z,46.07
2022-12-26T21:22:22.558Z,45.64
2022-12-26T21:24:49.806Z,46.52
2022-12-26T21:27:18.425Z,46.95
2022-12-26T21:29:45.699Z,47.31
2022-12-26T21:32:12.973Z,47.11
2022-12-26T21:34:40.088Z,47.80
2022-12-26T21:37:07.322Z,47.79
2022-12-26T21:39:36.233Z,48.58
2022-12-26T21:42:04.872Z,48.38
2022-12-26T21:44:33.577Z,48.63
2022-12-26T21:47:00.808Z,48.79
2022-12-26T21:49:28.538Z,48.98
2022-12-26T21:51:56.238Z,48.99
2022-12-26T21:54:23.495Z,49.50
2022-12-26T21:56:51.148Z,49.68
2022-12-26T21:59:18.711Z,49.46
2022-12-26T22:01:47.425Z,49.81
2022-12-26T22:04:14.540Z,50.10
2022-12-26T22:06:42.800Z,49.95
2022-12-26T22:09:10.589Z,50.24
2022-12-26T22:11:38.350Z,49.84
2022-12-26T22:14:05.667Z,49.69
2022-12-26T22:16:32.869Z,50.00
2022-12-26T22:19:01.514Z,49.92
2022-12-26T22:21:28.730Z,50.23
2022-12-26T22:23:55.956Z,50.11
2022-12-26T22:26:23.954Z,50.88
2022-12-26T22:28:51.218Z,50.50
2022-12-26T22:31:20.953Z,51.07
2022-12-26T22:33:48.506Z,50.82
2022-12-26T22:36:17.126Z,50.69
2022-12-26T22:38:44.290Z,50.84
2022-12-26T22:41:11.532Z,50.88
2022-12-26T22:43:38.692Z,50.67
2022-12-26T22:46:06.303Z,50.84
2022-12-26T22:48:33.571Z,51.10
2022-12-26T22:51:00.748Z,51.16
2022-12-26T22:53:30.763Z,50.78
2022-12-26T22:56:00.441Z,51.28
2022-12-26T22:58:28.818Z,50.59
2022-12-26T23:00:56.207Z,51.00
2022-12-26T23:03:25.081Z,51.25
2022-12-26T23:05:53.524Z,50.97
2022-12-26T23:08:23.557Z,50.59
2022-12-26T23:10:55.978Z,50.53
2022-12-26T23:13:24.430Z,50.74
2022-12-26T23:15:59.566Z,50.96
2022-12-26T23:18:35.275Z,50.92
2022-12-26T23:21:08.826Z,50.40
2022-12-26T23:23:36.803Z,50.80
2022-12-26T23:26:05.563Z,50.56
2022-12-26T23:28:32.814Z,49.98
2022-12-26T23:31:00.453Z,50.32
2022-12-26T23:33:28.294Z,50.36
2022-12-26T23:35:55.478Z,49.58
2022-12-26T23:38:22.741Z,49.53
2022-12-26T23:40:50.026Z,49.50
2022-12-26T23:43:19.028Z,48.57
2022-12-26T23:45:46.472Z,47.88
2022-12-26T23:48:13.855Z,48.56
2022-12-26T23:50:41.065Z,48.40
2022-12-26T23:53:08.502Z,48.45
2022-12-26T23:55:35.764Z,48.16
2022-12-26T23:58:03.044Z,48.37
